Monte Rio, CA (95462)

4:12 PM PST on December 22, 2014 (GMT -0800)
The Terraces, Monte Rio | Change Station
CLOSE
Current Station
Personal Weather Station
Location: Monte Rio, CA
Elevation: 36 ft
Nearby Weather Stations
Active Advisory: Coastal Flood Advisory

Elev 36 ft 38.47 °N, 123.01 °W | Updated 11 seconds ago

Clear
Clear
60.4 °F
Feels Like 60.4 °F
N
0.0
Wind Variable Wind from SW
Gusts 0.0 mph

Today
High -- | Low -- °F
--% Chance of Precip.
Yesterday
High -- | Low -- °F
Precip. -- in
7:26 AM 4:55 PM
New Moon, 1% visible
Pressure 30.17 in
Visibility 10.0 miles
Clouds Clear
Dew Point 60 °F
Humidity 97%
Rainfall 0.00 in
Snow Depth Not available.
UV 0 out of 12
Pollen 4.40 out of 12
Air Quality Not available.
Flu Activity Not available.
METAR KSTS 222353Z 34008KT 10SM CLR 20/13 A3018 RMK AO2 SLP214 T02000133 10211 20139 55010

More Conditions Fewer Conditions

Pressure 30.17 in
Visibility 10.0 miles
Clouds Clear
Dew Point 60 °F
Humidity 97%
Rainfall 0.00 in
Snow Depth Not available.
UV 0 out of 12
Pollen 4.40 out of 12
Air Quality Not available.
Flu Activity Not available.
METAR KSTS 222353Z 34008KT 10SM CLR 20/13 A3018 RMK AO2 SLP214 T02000133 10211 20139 55010

More Conditions Fewer Conditions

10-Day Weather Forecast

Almanac

Astronomy

Dec. 22, 2014 Rise Set
Actual Time
Civil Twilight
Nautical Twilight
Astronomical Twilight
Moon
Length of Visible Light
Length of Day
Tomorrow will be .
, % of the Moon is Illuminated

Today's Extremes

State Highs State Lows

Community

WunderPhotos

Upload Photos

1,779,736 photos uploaded!

WunderBlogs® & News

Nearby

Air Quality

  Air Quality AQ Index Pollutant
Not available.

Snow Depth

Station Depth Elevation

Earthquake Activity

City Distance Mag. Time & Date
Minimum magnitude displayed is 2.5.

Coastal Water Temperatures

Place Temperature

Nearby Weather Stations